Time;durP1;ratioP1;P1;durP2;ratioP2;P2;SDS_P1;SDS_P2;PMS_P1;PMS_P2;Temp;Humidity;BMP_temperature;BMP_pressure;BME280_temperature;BME280_humidity;BME280_pressure;Samples;Min_cycle;Max_cycle;Signal;HPM_P1;HPM_P2
2023/11/21 00:00:48;;;;;;;4.53;2.27;;;21.80;92.50;;;;;;5020000;28;20943;-64
2023/11/21 00:03:15;;;;;;;3.80;2.43;;;21.80;92.60;;;;;;5017447;28;20473;-64
2023/11/21 00:05:42;;;;;;;11.10;2.43;;;21.80;92.60;;;;;;5018425;28;21171;-64
2023/11/21 00:08:09;;;;;;;4.33;2.83;;;21.80;92.60;;;;;;5020823;28;20462;-64
2023/11/21 00:10:38;;;;;;;4.47;2.57;;;21.80;92.70;;;;;;5025215;28;20881;-64
2023/11/21 00:13:04;;;;;;;4.13;3.23;;;21.70;92.60;;;;;;5022129;28;20453;-64
2023/11/21 00:15:31;;;;;;;3.43;2.57;;;21.70;92.60;;;;;;5016582;28;20471;-64
2023/11/21 00:17:59;;;;;;;4.13;2.27;;;21.70;93.00;;;;;;5020360;28;21065;-64
2023/11/21 00:20:26;;;;;;;5.30;3.03;;;21.70;92.60;;;;;;5021864;28;21010;-64
2023/11/21 00:22:53;;;;;;;4.00;2.30;;;21.70;92.60;;;;;;5024944;28;20473;-64
2023/11/21 00:25:19;;;;;;;5.67;2.40;;;21.70;92.60;;;;;;5025705;28;20461;-63
2023/11/21 00:27:46;;;;;;;5.40;2.40;;;21.70;92.60;;;;;;5025778;28;21292;-64
2023/11/21 00:30:14;;;;;;;2.77;2.40;;;21.70;92.60;;;;;;5020292;28;20482;-64
2023/11/21 00:32:41;;;;;;;5.47;2.37;;;21.70;92.60;;;;;;5021369;28;20461;-64
2023/11/21 00:35:10;;;;;;;3.50;2.10;;;21.70;92.60;;;;;;5021139;28;20472;-64
2023/11/21 00:37:38;;;;;;;4.80;2.80;;;21.70;92.50;;;;;;5022038;28;20941;-64
2023/11/21 00:40:07;;;;;;;3.07;2.10;;;21.70;92.50;;;;;;5021794;28;20457;-64
2023/11/21 00:42:34;;;;;;;4.13;1.90;;;21.70;92.50;;;;;;5027225;28;20501;-64
2023/11/21 00:45:01;;;;;;;3.50;2.70;;;21.70;92.50;;;;;;5025114;28;21522;-64
2023/11/21 00:47:28;;;;;;;3.23;2.10;;;21.60;92.40;;;;;;5025535;28;21218;-64
2023/11/21 00:49:54;;;;;;;3.40;1.90;;;21.60;92.50;;;;;;5026359;28;20965;-64
2023/11/21 00:52:22;;;;;;;4.67;2.30;;;21.60;92.50;;;;;;5027403;28;20469;-63
2023/11/21 00:54:49;;;;;;;3.77;2.73;;;21.60;92.50;;;;;;5026249;28;20464;-64
2023/11/21 00:57:16;;;;;;;2.90;2.60;;;21.60;92.50;;;;;;5025369;28;20454;-64
2023/11/21 00:59:43;;;;;;;2.60;1.90;;;21.60;92.50;;;;;;5023681;28;20454;-64
2023/11/21 01:02:10;;;;;;;2.50;1.80;;;21.60;92.50;;;;;;5027149;28;20500;-64
2023/11/21 01:04:37;;;;;;;4.20;2.63;;;21.60;92.60;;;;;;5034248;28;20968;-64
2023/11/21 01:07:05;;;;;;;3.20;2.17;;;21.60;92.60;;;;;;5025121;28;20450;-63
2023/11/21 01:09:33;;;;;;;3.67;1.97;;;21.60;92.50;;;;;;5027397;28;20454;-64
2023/11/21 01:12:00;;;;;;;3.07;2.20;;;21.60;92.50;;;;;;5024661;28;21035;-64
2023/11/21 01:14:27;;;;;;;4.13;2.47;;;21.50;92.50;;;;;;5020512;28;20462;-63
2023/11/21 01:16:54;;;;;;;2.93;1.90;;;21.50;92.50;;;;;;5015480;28;20453;-64
2023/11/21 01:19:21;;;;;;;2.60;2.10;;;21.50;92.50;;;;;;5018940;28;21013;-63
2023/11/21 01:21:48;;;;;;;3.53;2.23;;;21.50;92.50;;;;;;5020082;28;20460;-64
2023/11/21 01:24:14;;;;;;;4.90;2.60;;;21.50;92.40;;;;;;5020322;28;20457;-63
2023/11/21 01:26:43;;;;;;;5.60;2.30;;;21.50;92.40;;;;;;5020132;28;20567;-64
2023/11/21 01:29:10;;;;;;;4.17;2.40;;;21.50;92.40;;;;;;5018673;28;20551;-64
2023/11/21 01:31:36;;;;;;;3.47;1.90;;;21.50;92.40;;;;;;5019871;28;21359;-64
2023/11/21 01:34:03;;;;;;;2.00;1.67;;;21.50;92.40;;;;;;5018900;28;20458;-64
2023/11/21 01:36:33;;;;;;;3.07;1.93;;;21.50;92.50;;;;;;5011995;28;20465;-63
2023/11/21 01:39:00;;;;;;;2.67;1.80;;;21.50;92.50;;;;;;5018615;28;20458;-64
2023/11/21 01:41:28;;;;;;;3.03;2.40;;;21.40;92.40;;;;;;5018560;28;20467;-64
2023/11/21 01:43:56;;;;;;;3.07;1.93;;;21.40;92.40;;;;;;5022183;28;21063;-64
2023/11/21 01:46:24;;;;;;;3.30;2.00;;;21.40;92.40;;;;;;5014584;28;20608;-63
2023/11/21 01:48:51;;;;;;;4.17;2.00;;;21.40;92.50;;;;;;5018267;28;20482;-64
2023/11/21 01:51:19;;;;;;;4.13;1.75;;;21.40;92.40;;;;;;5017057;28;21270;-64
2023/11/21 01:53:46;;;;;;;6.25;2.20;;;21.40;92.50;;;;;;5020431;28;20199;-64
2023/11/21 01:56:13;;;;;;;3.67;2.00;;;21.40;92.50;;;;;;5018478;28;20203;-63
2023/11/21 01:58:41;;;;;;;3.20;2.13;;;21.40;92.50;;;;;;5020094;28;20511;-64
2023/11/21 02:01:09;;;;;;;2.58;1.63;;;21.40;92.50;;;;;;5018864;28;20674;-64
2023/11/21 02:03:36;;;;;;;3.25;2.30;;;21.40;92.50;;;;;;5021814;28;20558;-64
2023/11/21 02:06:03;;;;;;;3.17;2.53;;;21.30;92.50;;;;;;5019507;28;20209;-64
2023/11/21 02:08:30;;;;;;;2.13;1.90;;;21.40;92.50;;;;;;5019525;28;20205;-64
2023/11/21 02:10:57;;;;;;;3.40;2.47;;;21.40;92.50;;;;;;5020533;28;20219;-64
2023/11/21 02:13:24;;;;;;;2.77;1.80;;;21.40;92.50;;;;;;5020813;28;20454;-64
2023/11/21 02:15:52;;;;;;;2.47;1.67;;;21.30;92.40;;;;;;5023947;28;20484;-64
2023/11/21 02:18:21;;;;;;;2.90;2.47;;;21.30;92.50;;;;;;5025487;28;20231;-64
2023/11/21 02:20:48;;;;;;;3.45;2.30;;;21.30;92.50;;;;;;5024823;28;20206;-64
2023/11/21 02:23:17;;;;;;;2.00;1.80;;;21.30;92.50;;;;;;5020097;28;20198;-63
2023/11/21 02:25:44;;;;;;;3.20;2.28;;;21.30;92.60;;;;;;5024943;28;20324;-64
2023/11/21 02:28:12;;;;;;;2.83;2.00;;;21.30;92.50;;;;;;5023029;28;20193;-63
2023/11/21 02:30:38;;;;;;;3.80;2.40;;;21.30;92.60;;;;;;5025772;28;20221;-63
2023/11/21 02:33:06;;;;;;;2.33;2.03;;;21.30;92.50;;;;;;5025584;28;20823;-64
2023/11/21 02:35:32;;;;;;;5.82;1.90;;;21.30;92.50;;;;;;5021718;28;20450;-63
2023/11/21 02:37:59;;;;;;;3.10;2.80;;;21.30;92.60;;;;;;5025463;28;20222;-64
2023/11/21 02:40:27;;;;;;;1.80;1.70;;;21.30;92.60;;;;;;5022480;28;20898;-63
2023/11/21 02:42:54;;;;;;;2.63;1.70;;;21.20;92.50;;;;;;5024974;28;20196;-64
2023/11/21 02:45:22;;;;;;;1.97;1.77;;;21.20;92.60;;;;;;5022771;28;20196;-63
2023/11/21 02:47:49;;;;;;;3.60;1.50;;;21.20;92.60;;;;;;5027275;28;21020;-64
2023/11/21 02:50:18;;;;;;;2.80;1.83;;;21.20;92.50;;;;;;5026749;28;20461;-63
2023/11/21 02:52:45;;;;;;;2.23;2.00;;;21.20;92.60;;;;;;5027113;28;20944;-64
2023/11/21 02:55:12;;;;;;;4.93;2.17;;;21.20;92.50;;;;;;5027071;28;21461;-64
2023/11/21 02:57:40;;;;;;;2.03;1.53;;;21.20;92.60;;;;;;5027268;28;20235;-63
2023/11/21 03:00:09;;;;;;;1.90;1.70;;;21.20;92.60;;;;;;5026618;28;20459;-63
2023/11/21 03:02:39;;;;;;;2.60;1.77;;;21.20;92.60;;;;;;5027945;28;20214;-64
2023/11/21 03:05:06;;;;;;;1.90;1.80;;;21.20;92.60;;;;;;5026783;28;20210;-64
2023/11/21 03:07:33;;;;;;;2.22;1.92;;;21.10;92.60;;;;;;5026639;28;20208;-64
2023/11/21 03:10:00;;;;;;;2.67;2.47;;;21.10;92.50;;;;;;5028982;28;21171;-63
2023/11/21 03:12:27;;;;;;;1.83;1.57;;;21.10;92.60;;;;;;5029797;28;20625;-63
2023/11/21 03:14:55;;;;;;;2.00;1.60;;;21.10;92.60;;;;;;5034358;28;20449;-63
2023/11/21 03:17:22;;;;;;;2.70;1.75;;;21.10;92.60;;;;;;5026710;28;20217;-63
2023/11/21 03:19:48;;;;;;;2.00;1.80;;;21.10;92.60;;;;;;5029349;28;20276;-63
2023/11/21 03:22:15;;;;;;;3.58;1.75;;;21.10;92.60;;;;;;5029316;28;20198;-64
2023/11/21 03:24:42;;;;;;;2.87;1.70;;;21.10;92.60;;;;;;5022721;28;20572;-64
2023/11/21 03:27:08;;;;;;;1.97;1.67;;;21.10;92.70;;;;;;5019513;28;20823;-64
2023/11/21 03:29:35;;;;;;;2.37;2.03;;;21.10;92.70;;;;;;5022318;28;20477;-64
2023/11/21 03:32:04;;;;;;;1.70;1.60;;;21.10;92.70;;;;;;5019035;28;20485;-64
2023/11/21 03:34:31;;;;;;;1.70;1.60;;;21.00;92.70;;;;;;5026023;28;20465;-63
2023/11/21 03:36:58;;;;;;;2.00;1.88;;;21.10;92.70;;;;;;5026625;28;20452;-64
2023/11/21 03:39:25;;;;;;;2.92;1.75;;;21.00;92.70;;;;;;5024389;28;20224;-63
2023/11/21 03:41:52;;;;;;;2.63;2.00;;;21.00;92.70;;;;;;5025327;28;20201;-64
2023/11/21 03:44:19;;;;;;;1.70;1.40;;;21.00;93.00;;;;;;5021341;28;20458;-63
2023/11/21 03:46:46;;;;;;;2.55;1.40;;;21.00;92.70;;;;;;5024180;28;20192;-63
2023/11/21 03:49:14;;;;;;;2.43;1.67;;;21.00;92.70;;;;;;5023855;28;20204;-64
2023/11/21 03:51:40;;;;;;;1.83;1.60;;;21.00;92.70;;;;;;5019741;28;20485;-64
2023/11/21 03:54:07;;;;;;;1.80;1.50;;;21.00;92.60;;;;;;5020539;28;20192;-63
2023/11/21 03:56:37;;;;;;;2.30;1.77;;;21.00;92.70;;;;;;5023421;28;20463;-64
2023/11/21 03:59:03;;;;;;;2.53;2.00;;;20.90;92.70;;;;;;5021893;28;20477;-63
2023/11/21 04:01:30;;;;;;;1.50;1.40;;;21.00;92.70;;;;;;5021985;28;20477;-63
2023/11/21 04:03:57;;;;;;;1.60;1.20;;;21.00;92.70;;;;;;5023911;28;20199;-63
2023/11/21 04:06:25;;;;;;;2.75;2.10;;;20.90;92.60;;;;;;5022503;28;20211;-63
2023/11/21 04:08:52;;;;;;;2.17;1.55;;;21.00;92.80;;;;;;5022318;28;20196;-63
2023/11/21 04:11:19;;;;;;;2.05;1.65;;;21.00;92.80;;;;;;5021832;28;20422;-63
2023/11/21 04:13:46;;;;;;;2.10;1.73;;;21.00;92.80;;;;;;5023940;28;20199;-63
2023/11/21 04:16:13;;;;;;;1.60;1.50;;;21.00;92.80;;;;;;5021461;28;21092;-63
2023/11/21 04:18:40;;;;;;;3.03;2.10;;;21.00;92.80;;;;;;5022557;28;20469;-63
2023/11/21 04:21:07;;;;;;;1.67;1.27;;;20.90;92.80;;;;;;5023643;28;21348;-64
2023/11/21 04:23:36;;;;;;;1.60;1.43;;;21.00;92.80;;;;;;5023399;28;20210;-63
2023/11/21 04:26:03;;;;;;;2.72;1.90;;;20.90;92.80;;;;;;5020967;28;20458;-64
2023/11/21 04:28:30;;;;;;;1.70;1.40;;;20.90;92.80;;;;;;5022172;28;20683;-63
2023/11/21 04:30:57;;;;;;;2.38;1.42;;;20.90;92.80;;;;;;5022813;28;20199;-64
2023/11/21 04:33:25;;;;;;;5.55;1.90;;;20.90;92.80;;;;;;5023969;28;20303;-63
2023/11/21 04:35:52;;;;;;;2.27;1.90;;;20.90;92.80;;;;;;5021665;28;20713;-63
2023/11/21 04:38:19;;;;;;;5.55;1.88;;;20.90;92.90;;;;;;5024262;28;20460;-63
2023/11/21 04:40:47;;;;;;;2.17;1.63;;;20.90;92.90;;;;;;5023402;28;20200;-64
2023/11/21 04:43:13;;;;;;;2.20;1.85;;;20.90;92.90;;;;;;5022394;28;20200;-63
2023/11/21 04:45:41;;;;;;;3.50;1.70;;;20.80;92.80;;;;;;5023411;28;20213;-64
2023/11/21 04:48:08;;;;;;;2.50;1.80;;;20.80;92.80;;;;;;5019630;28;20234;-63
2023/11/21 04:50:34;;;;;;;2.53;1.60;;;20.90;92.90;;;;;;5020844;28;21296;-63
2023/11/21 04:53:01;;;;;;;1.90;1.75;;;20.80;92.80;;;;;;5023214;28;21525;-63
2023/11/21 04:55:28;;;;;;;2.17;1.97;;;20.80;92.80;;;;;;5022680;28;20204;-63
2023/11/21 04:57:56;;;;;;;1.73;1.63;;;20.80;92.80;;;;;;5016424;28;20455;-64
2023/11/21 05:00:23;;;;;;;1.80;1.50;;;20.80;92.80;;;;;;5018060;28;22521;-64
2023/11/21 05:02:50;;;;;;;2.30;1.67;;;20.80;92.80;;;;;;5019449;28;20966;-63
2023/11/21 05:05:17;;;;;;;1.40;1.30;;;20.80;92.90;;;;;;5019634;28;20470;-63
2023/11/21 05:07:44;;;;;;;1.83;1.52;;;20.80;92.90;;;;;;5019429;28;20204;-64
2023/11/21 05:10:12;;;;;;;3.80;1.60;;;20.80;92.90;;;;;;5021718;28;20261;-64
2023/11/21 05:12:39;;;;;;;2.00;1.43;;;20.80;92.90;;;;;;5023533;28;20222;-63
2023/11/21 05:15:10;;;;;;;2.08;1.60;;;20.80;92.90;;;;;;5023670;28;20478;-63
2023/11/21 05:17:38;;;;;;;2.53;1.88;;;20.80;92.90;;;;;;5023107;28;20193;-63
2023/11/21 05:20:08;;;;;;;2.50;1.70;;;20.80;92.90;;;;;;5024514;28;20212;-63
2023/11/21 05:22:35;;;;;;;2.30;2.00;;;20.80;92.90;;;;;;5031018;28;20217;-63
2023/11/21 05:25:02;;;;;;;2.20;1.30;;;20.80;92.90;;;;;;5026639;28;20195;-63
2023/11/21 05:27:29;;;;;;;2.50;1.48;;;20.80;92.90;;;;;;5027475;28;21117;-63
2023/11/21 05:29:56;;;;;;;1.40;1.10;;;20.80;93.00;;;;;;5024202;28;20196;-63
2023/11/21 05:32:24;;;;;;;2.15;1.92;;;20.80;93.00;;;;;;5023974;28;20223;-63
2023/11/21 05:34:51;;;;;;;1.70;1.50;;;20.80;93.00;;;;;;5026339;28;20202;-63
2023/11/21 05:37:18;;;;;;;1.75;1.38;;;20.70;92.90;;;;;;5023143;28;21298;-63
2023/11/21 05:39:45;;;;;;;1.50;1.40;;;20.70;93.20;;;;;;5021233;28;21287;-63
2023/11/21 05:42:11;;;;;;;1.80;1.38;;;20.70;92.90;;;;;;5020380;28;20196;-63
2023/11/21 05:44:41;;;;;;;4.45;1.45;;;20.70;92.90;;;;;;5015928;28;20353;-63
2023/11/21 05:47:08;;;;;;;2.00;1.48;;;20.70;92.90;;;;;;5026736;28;20199;-63
2023/11/21 05:49:36;;;;;;;10.25;1.83;;;20.70;92.90;;;;;;5026149;28;20592;-67
2023/11/21 05:52:05;;;;;;;2.85;1.25;;;20.70;93.00;;;;;;5025900;28;20246;-69
2023/11/21 05:54:31;;;;;;;4.32;2.22;;;20.70;93.20;;;;;;5030970;28;20238;-68
2023/11/21 05:56:59;;;;;;;3.50;1.80;;;20.80;93.30;;;;;;5028124;28;20660;-68
2023/11/21 05:59:25;;;;;;;5.97;1.30;;;20.80;93.60;;;;;;5027182;28;20484;-68
2023/11/21 06:01:53;;;;;;;1.50;1.25;;;20.80;93.70;;;;;;5027609;28;20214;-66
2023/11/21 06:04:23;;;;;;;1.77;1.65;;;20.80;93.90;;;;;;5030235;28;20364;-66
2023/11/21 06:06:52;;;;;;;2.00;1.60;;;20.80;93.90;;;;;;5026263;28;20552;-65
2023/11/21 06:09:19;;;;;;;2.20;1.50;;;20.80;93.90;;;;;;5025117;28;20207;-66
2023/11/21 06:11:46;;;;;;;1.67;1.30;;;20.90;93.90;;;;;;5023756;28;20974;-64
2023/11/21 06:14:12;;;;;;;1.90;1.40;;;20.90;94.10;;;;;;5025382;28;20195;-64
2023/11/21 06:16:40;;;;;;;1.83;1.20;;;20.90;94.20;;;;;;5028034;28;20662;-64
2023/11/21 06:19:06;;;;;;;3.20;1.50;;;20.90;94.20;;;;;;5028260;28;20199;-64
2023/11/21 06:21:33;;;;;;;2.20;1.42;;;20.90;94.20;;;;;;5024759;28;20458;-64
2023/11/21 06:24:01;;;;;;;1.90;1.40;;;21.00;94.30;;;;;;5025523;28;20192;-64
2023/11/21 06:26:28;;;;;;;1.97;1.33;;;21.00;94.30;;;;;;5023113;28;20457;-64
2023/11/21 06:28:56;;;;;;;1.67;1.50;;;20.90;94.30;;;;;;5026787;28;20463;-64
2023/11/21 06:31:23;;;;;;;1.90;1.73;;;20.90;94.40;;;;;;5018942;28;21251;-64
2023/11/21 06:33:51;;;;;;;1.40;1.27;;;21.00;94.40;;;;;;5023448;28;20478;-66
2023/11/21 06:36:18;;;;;;;1.90;1.20;;;21.00;94.40;;;;;;5025851;28;20468;-64
2023/11/21 06:38:45;;;;;;;1.90;1.40;;;21.00;94.50;;;;;;5021670;28;20462;-65
2023/11/21 06:41:15;;;;;;;2.10;1.40;;;21.00;94.50;;;;;;5021673;28;20457;-65
2023/11/21 06:43:44;;;;;;;3.83;1.30;;;21.00;94.50;;;;;;5019894;28;20526;-65
2023/11/21 06:46:14;;;;;;;1.70;1.17;;;21.10;94.60;;;;;;5022009;28;20543;-64
2023/11/21 06:48:41;;;;;;;1.40;1.30;;;21.10;94.60;;;;;;5022706;28;20581;-65
2023/11/21 06:51:08;;;;;;;1.77;1.37;;;21.10;94.60;;;;;;5023432;28;20461;-64
2023/11/21 06:53:34;;;;;;;2.17;1.50;;;21.10;94.60;;;;;;5022176;28;20842;-65
2023/11/21 06:56:01;;;;;;;1.37;1.27;;;21.10;94.60;;;;;;5024298;28;20815;-65
2023/11/21 06:58:29;;;;;;;4.40;1.53;;;21.10;94.60;;;;;;5019386;28;20462;-64
2023/11/21 07:00:58;;;;;;;1.40;1.20;;;21.10;94.50;;;;;;5018573;28;20961;-59
2023/11/21 07:03:26;;;;;;;1.60;1.43;;;21.10;94.60;;;;;;5021728;28;20473;-63
2023/11/21 07:05:52;;;;;;;1.30;1.00;;;21.10;94.60;;;;;;5025174;28;20465;-64
2023/11/21 07:08:19;;;;;;;1.70;1.60;;;21.10;94.50;;;;;;5024614;28;20493;-64
2023/11/21 07:10:47;;;;;;;1.93;1.43;;;21.20;94.60;;;;;;5024851;28;20494;-65
2023/11/21 07:13:13;;;;;;;1.80;1.50;;;21.10;94.60;;;;;;5025928;28;20506;-67
2023/11/21 07:15:41;;;;;;;2.10;1.37;;;21.20;94.60;;;;;;5024280;28;20463;-66
2023/11/21 07:18:08;;;;;;;1.87;1.40;;;21.20;94.60;;;;;;5025928;28;20480;-65
2023/11/21 07:20:35;;;;;;;1.20;1.00;;;21.20;94.70;;;;;;5022191;28;21033;-67
2023/11/21 07:23:03;;;;;;;1.30;1.10;;;21.20;94.60;;;;;;5020436;28;20465;-67
2023/11/21 07:25:30;;;;;;;1.57;1.40;;;21.20;94.60;;;;;;5018357;28;20517;-68
2023/11/21 07:27:57;;;;;;;1.67;1.30;;;21.20;94.60;;;;;;5020932;28;20468;-67
2023/11/21 07:30:23;;;;;;;1.27;1.10;;;21.20;94.60;;;;;;5024843;28;20668;-66
2023/11/21 07:32:51;;;;;;;1.50;1.40;;;21.30;94.80;;;;;;5014656;28;20472;-66
2023/11/21 07:35:18;;;;;;;2.60;1.77;;;21.20;94.80;;;;;;5020774;28;20485;-66
2023/11/21 07:37:47;;;;;;;2.03;1.60;;;21.30;94.90;;;;;;5018135;28;20458;-63
2023/11/21 07:40:14;;;;;;;2.00;1.13;;;21.30;94.90;;;;;;5015755;28;20454;-63
2023/11/21 07:42:42;;;;;;;1.80;1.43;;;21.30;94.90;;;;;;5023284;28;20461;-63
2023/11/21 07:45:09;;;;;;;1.67;1.50;;;21.40;94.90;;;;;;5016350;28;20465;-64
2023/11/21 07:47:36;;;;;;;1.40;1.30;;;21.40;94.90;;;;;;5020202;28;20468;-64
2023/11/21 07:50:07;;;;;;;1.73;1.63;;;21.40;94.80;;;;;;5024126;28;20465;-62
2023/11/21 07:52:34;;;;;;;1.97;1.50;;;21.40;94.80;;;;;;5024978;28;21231;-64
2023/11/21 07:55:01;;;;;;;1.80;1.60;;;21.40;94.70;;;;;;5025672;28;21403;-60
2023/11/21 07:57:28;;;;;;;3.10;1.43;;;21.50;94.80;;;;;;5013466;28;20471;-63
2023/11/21 07:59:55;;;;;;;2.13;1.80;;;21.50;94.70;;;;;;5026005;28;20466;-63
2023/11/21 08:02:21;;;;;;;4.60;2.23;;;21.50;94.60;;;;;;5023573;28;20468;-64
2023/11/21 08:04:49;;;;;;;16.43;11.03;;;21.60;94.60;;;;;;5024858;28;20461;-65
2023/11/21 08:07:18;;;;;;;16.80;11.13;;;21.50;91.10;;;;;;5024223;28;20450;-67
2023/11/21 08:09:46;;;;;;;17.23;11.17;;;21.40;88.60;;;;;;5023962;28;20466;-66
2023/11/21 08:12:14;;;;;;;17.80;12.37;;;21.20;85.20;;;;;;5026734;28;21069;-67
2023/11/21 08:14:41;;;;;;;19.30;11.60;;;20.90;82.70;;;;;;5024483;28;20458;-66
2023/11/21 08:17:10;;;;;;;21.93;11.67;;;20.90;84.10;;;;;;5023639;28;20465;-66
2023/11/21 08:19:37;;;;;;;23.03;13.10;;;20.90;83.40;;;;;;5023331;28;20850;-66
2023/11/21 08:22:07;;;;;;;15.77;11.85;;;20.90;82.20;;;;;;5020148;28;20466;-63
2023/11/21 08:24:35;;;;;;;21.58;11.23;;;20.80;81.60;;;;;;5015554;28;20298;-62
2023/11/21 08:27:02;;;;;;;15.50;9.93;;;20.70;82.10;;;;;;5021170;28;20212;-62
2023/11/21 08:29:31;;;;;;;13.57;7.37;;;20.80;83.70;;;;;;5022222;28;20716;-63
2023/11/21 08:31:59;;;;;;;12.10;8.25;;;20.90;84.40;;;;;;5011901;28;20454;-63
2023/11/21 08:34:26;;;;;;;10.60;6.72;;;20.90;84.60;;;;;;5019579;28;20219;-63
2023/11/21 08:36:53;;;;;;;13.33;6.20;;;21.00;85.00;;;;;;5022256;28;20203;-63
2023/11/21 08:39:19;;;;;;;6.80;5.50;;;21.10;85.30;;;;;;5019407;28;20466;-62
2023/11/21 08:41:47;;;;;;;8.80;5.33;;;21.10;85.50;;;;;;5020684;28;20466;-63
2023/11/21 08:44:16;;;;;;;6.90;4.53;;;21.20;85.90;;;;;;5019092;28;20464;-63
2023/11/21 08:46:44;;;;;;;5.67;4.37;;;21.20;86.00;;;;;;5017544;28;20462;-62
2023/11/21 08:49:11;;;;;;;5.60;3.80;;;21.20;86.50;;;;;;5019950;28;20560;-63
2023/11/21 08:51:38;;;;;;;6.63;3.50;;;21.30;86.70;;;;;;5018152;28;20465;-63
2023/11/21 08:54:07;;;;;;;5.60;4.07;;;21.30;86.90;;;;;;5017211;28;20478;-63
2023/11/21 08:56:34;;;;;;;4.73;3.93;;;21.30;87.20;;;;;;5019472;28;20474;-63
2023/11/21 08:59:03;;;;;;;5.00;3.90;;;21.30;87.40;;;;;;5015873;28;20470;-63
2023/11/21 09:01:31;;;;;;;7.80;3.80;;;21.30;87.50;;;;;;5017615;28;20552;-63
2023/11/21 09:03:57;;;;;;;6.10;3.70;;;21.30;87.80;;;;;;5016803;28;20456;-63
2023/11/21 09:06:24;;;;;;;5.83;3.87;;;21.40;88.00;;;;;;5016220;28;20983;-63
2023/11/21 09:08:51;;;;;;;3.70;3.03;;;21.40;88.20;;;;;;5015286;28;21004;-63
2023/11/21 09:11:18;;;;;;;6.70;4.20;;;21.40;88.40;;;;;;5019134;28;20470;-63
2023/11/21 09:13:46;;;;;;;4.80;3.00;;;21.40;89.30;;;;;;5014374;28;20480;-65
2023/11/21 09:16:15;;;;;;;3.47;2.83;;;21.40;88.80;;;;;;5016038;28;20467;-65
2023/11/21 09:18:42;;;;;;;6.20;3.40;;;21.40;89.10;;;;;;5006056;28;21162;-65
2023/11/21 09:21:08;;;;;;;5.80;2.87;;;21.50;89.40;;;;;;5010718;28;20473;-66
2023/11/21 09:23:36;;;;;;;7.67;3.03;;;21.50;89.90;;;;;;5018837;28;20905;-67
2023/11/21 09:26:03;;;;;;;5.80;2.70;;;21.50;90.00;;;;;;5018153;28;20475;-67
2023/11/21 09:28:30;;;;;;;4.57;2.60;;;21.50;90.10;;;;;;5016755;28;20470;-65
2023/11/21 09:30:56;;;;;;;5.03;2.70;;;21.50;90.20;;;;;;5018076;28;20792;-65
2023/11/21 09:33:25;;;;;;;6.17;2.90;;;21.50;90.30;;;;;;5016271;28;20478;-64
2023/11/21 09:35:52;;;;;;;4.90;2.90;;;21.60;90.50;;;;;;5022967;28;20470;-62
2023/11/21 09:38:19;;;;;;;3.83;2.20;;;21.60;90.50;;;;;;5015006;28;20470;-64
2023/11/21 09:40:46;;;;;;;4.70;2.20;;;21.60;90.60;;;;;;5021683;28;20476;-64
2023/11/21 09:43:18;;;;;;;3.20;2.50;;;21.60;90.70;;;;;;5017439;28;20924;-65
2023/11/21 09:45:47;;;;;;;3.30;2.10;;;21.60;90.80;;;;;;5019073;28;21386;-66
2023/11/21 09:48:16;;;;;;;4.27;2.80;;;21.70;91.10;;;;;;5014311;28;20500;-65
2023/11/21 09:50:44;;;;;;;3.23;2.93;;;21.70;91.20;;;;;;5020360;28;20972;-68
2023/11/21 09:53:18;;;;;;;3.47;2.60;;;21.70;91.20;;;;;;5026476;28;20485;-66
2023/11/21 09:55:46;;;;;;;4.60;3.30;;;21.70;91.20;;;;;;5025495;28;20462;-68
2023/11/21 09:58:13;;;;;;;2.30;2.10;;;21.80;91.40;;;;;;5029505;28;20544;-64
2023/11/21 10:00:42;;;;;;;4.13;2.60;;;21.70;91.40;;;;;;5023621;28;20458;-66
2023/11/21 10:03:09;;;;;;;2.80;1.93;;;21.70;91.40;;;;;;5023412;28;20461;-67
2023/11/21 10:05:36;;;;;;;3.20;2.37;;;21.80;91.60;;;;;;5019751;28;20505;-68
2023/11/21 10:08:07;;;;;;;3.00;1.97;;;21.80;91.70;;;;;;5024133;28;20565;-67
2023/11/21 10:10:36;;;;;;;7.87;2.33;;;21.80;91.80;;;;;;5022901;28;20505;-69
2023/11/21 10:13:06;;;;;;;4.50;2.90;;;21.80;91.70;;;;;;5023236;28;20465;-67
2023/11/21 10:15:35;;;;;;;2.47;2.27;;;21.80;91.80;;;;;;5025823;28;20454;-67
2023/11/21 10:18:03;;;;;;;4.63;2.13;;;21.90;91.80;;;;;;5019912;28;20995;-68
2023/11/21 10:20:33;;;;;;;2.87;2.10;;;21.90;91.90;;;;;;5024794;28;20515;-68
2023/11/21 10:23:02;;;;;;;2.57;2.00;;;21.90;91.90;;;;;;5025368;28;20469;-68
2023/11/21 10:25:30;;;;;;;2.47;2.27;;;21.90;92.10;;;;;;5019864;28;20497;-65
2023/11/21 10:28:01;;;;;;;2.37;2.07;;;21.90;91.90;;;;;;5024735;28;20457;-63
2023/11/21 10:30:33;;;;;;;3.83;2.23;;;21.90;91.90;;;;;;5022258;28;20454;-68
2023/11/21 10:33:02;;;;;;;2.40;2.20;;;21.90;92.30;;;;;;5018693;28;20986;-71
2023/11/21 10:35:40;;;;;;;2.43;2.17;;;21.90;92.40;;;;;;5025230;28;20556;-67
2023/11/21 10:38:09;;;;;;;4.67;1.90;;;22.00;92.10;;;;;;5027325;28;20481;-69
2023/11/21 10:40:41;;;;;;;2.27;2.07;;;22.00;92.10;;;;;;5022341;28;20543;-71
2023/11/21 10:43:09;;;;;;;2.53;1.80;;;22.00;92.10;;;;;;5021130;28;20458;-73
2023/11/21 10:45:37;;;;;;;2.20;1.97;;;22.00;92.20;;;;;;5018624;28;20450;-75
2023/11/21 10:48:07;;;;;;;2.20;1.90;;;22.00;92.20;;;;;;5022641;28;20459;-79
2023/11/21 10:50:35;;;;;;;3.00;1.60;;;22.00;92.20;;;;;;5020081;28;20555;-72
2023/11/21 10:53:03;;;;;;;5.50;2.30;;;22.00;92.20;;;;;;5018475;28;20462;-74
2023/11/21 10:55:31;;;;;;;2.77;2.20;;;22.10;92.30;;;;;;5018544;28;20500;-70
2023/11/21 10:58:01;;;;;;;2.53;1.90;;;22.00;92.20;;;;;;5022774;28;20452;-77
2023/11/21 11:00:29;;;;;;;1.87;1.30;;;22.10;92.30;;;;;;5017215;28;20453;-76
2023/11/21 11:02:56;;;;;;;2.50;2.10;;;22.10;92.30;;;;;;5020494;28;20450;-67
2023/11/21 11:05:25;;;;;;;1.97;1.73;;;22.10;92.20;;;;;;5021070;28;20474;-69
2023/11/21 11:07:59;;;;;;;2.70;1.37;;;22.10;92.30;;;;;;5018794;28;20574;-67
2023/11/21 11:10:27;;;;;;;2.10;1.90;;;22.20;92.30;;;;;;5014058;28;20463;-76
2023/11/21 11:12:55;;;;;;;1.80;1.60;;;22.10;92.30;;;;;;5018016;28;21575;-71
2023/11/21 11:15:23;;;;;;;2.40;2.00;;;22.20;92.30;;;;;;5019426;28;20493;-73
2023/11/21 11:17:51;;;;;;;2.40;2.10;;;22.20;92.30;;;;;;5020586;28;20462;-73
2023/11/21 11:20:20;;;;;;;2.30;2.10;;;22.20;92.30;;;;;;5021750;28;20469;-77
2023/11/21 11:22:58;;;;;;;3.50;1.93;;;22.20;92.30;;;;;;5021868;28;20457;-76
2023/11/21 11:25:42;;;;;;;2.00;1.80;;;22.20;92.30;;;;;;5021867;28;20520;-75
2023/11/21 11:28:14;;;;;;;2.20;2.00;;;22.20;92.30;;;;;;5020089;28;21931;-80
2023/11/21 11:30:55;;;;;;;1.50;1.40;;;22.20;92.20;;;;;;5017700;28;21944;-69
2023/11/21 11:33:32;;;;;;;2.77;1.90;;;22.20;92.10;;;;;;5019728;28;20466;-72
2023/11/21 11:36:07;;;;;;;2.20;1.97;;;22.20;92.10;;;;;;5019662;28;20469;-75
2023/11/21 11:38:36;;;;;;;2.10;1.90;;;22.20;92.00;;;;;;5018445;28;21096;-71
2023/11/21 11:41:04;;;;;;;1.47;1.37;;;22.10;92.00;;;;;;5023688;28;20469;-73
2023/11/21 11:43:32;;;;;;;2.73;1.73;;;22.20;92.10;;;;;;5025150;28;20457;-78
2023/11/21 11:46:04;;;;;;;2.17;1.80;;;22.10;92.30;;;;;;5022812;28;20463;-73
2023/11/21 11:48:35;;;;;;;4.50;1.70;;;22.20;92.00;;;;;;5023039;28;20486;-67
2023/11/21 11:51:08;;;;;;;1.80;1.70;;;22.20;91.90;;;;;;5018806;28;20453;-66
2023/11/21 11:53:41;;;;;;;1.57;1.30;;;22.20;91.90;;;;;;5020251;28;20489;-67
2023/11/21 11:56:26;;;;;;;2.00;1.80;;;22.20;91.90;;;;;;5026333;28;21498;-70
2023/11/21 11:58:54;;;;;;;1.70;1.40;;;22.20;92.00;;;;;;5024022;28;20522;-69
2023/11/21 12:01:23;;;;;;;2.97;1.70;;;22.30;92.10;;;;;;5019371;28;20900;-64
2023/11/21 12:04:30;;;;;;;1.93;1.73;;;22.30;92.10;;;;;;5019144;28;20473;-66
2023/11/21 12:06:59;;;;;;;5.20;3.20;;;22.30;92.10;;;;;;5019207;28;20929;-66
2023/11/21 12:09:27;;;;;;;1.87;1.47;;;22.30;92.30;;;;;;5019721;28;20646;-67
2023/11/21 12:11:56;;;;;;;3.87;2.10;;;22.30;91.90;;;;;;5019456;28;21068;-67
2023/11/21 12:14:24;;;;;;;3.50;1.60;;;22.30;91.90;;;;;;5022303;28;20483;-66
2023/11/21 12:16:52;;;;;;;2.40;1.70;;;22.30;92.00;;;;;;5018124;28;20526;-66
2023/11/21 12:19:21;;;;;;;1.90;1.50;;;22.30;91.90;;;;;;5014237;28;20811;-66
2023/11/21 12:21:49;;;;;;;2.90;1.97;;;22.30;91.80;;;;;;5008788;28;20591;-65
2023/11/21 12:24:17;;;;;;;4.47;1.90;;;22.20;91.80;;;;;;5018230;28;20465;-67
2023/11/21 12:26:44;;;;;;;7.10;1.60;;;22.20;92.00;;;;;;5016049;28;20630;-68
2023/11/21 12:29:11;;;;;;;2.00;1.80;;;22.20;91.70;;;;;;5018117;28;20718;-68
2023/11/21 12:31:37;;;;;;;1.87;1.43;;;22.30;91.70;;;;;;5016530;28;21004;-69
2023/11/21 12:34:06;;;;;;;3.00;1.50;;;22.30;91.70;;;;;;5013354;28;20478;-67
2023/11/21 12:36:34;;;;;;;2.00;1.70;;;22.30;91.70;;;;;;5020853;28;21028;-66
2023/11/21 12:39:02;;;;;;;2.97;1.70;;;22.30;91.80;;;;;;5024165;28;21234;-68
2023/11/21 12:41:30;;;;;;;2.03;1.70;;;22.40;91.90;;;;;;5016789;28;20524;-69
2023/11/21 12:43:57;;;;;;;1.50;1.37;;;22.30;91.80;;;;;;5019640;28;20469;-67
2023/11/21 12:46:25;;;;;;;3.63;1.60;;;22.30;92.10;;;;;;5021220;28;20934;-65
2023/11/21 12:48:52;;;;;;;5.23;1.67;;;22.40;91.90;;;;;;5021089;28;20461;-67